Time;durP1;ratioP1;P1;durP2;ratioP2;P2;SDS_P1;SDS_P2;PMS_P1;PMS_P2;Temp;Humidity;BMP_temperature;BMP_pressure;BME280_temperature;BME280_humidity;BME280_pressure;Samples;Min_cycle;Max_cycle;Signal;HPM_P1;HPM_P2
2021/08/20 00:00:29;;;;;;;;;4.00;2.00;;;;;18.28;57.04;101366.38;5055006;28;45894;-65
2021/08/20 00:02:54;;;;;;;;;4.00;2.67;;;;;18.23;56.97;101360.69;5055281;28;47016;-65
2021/08/20 00:05:19;;;;;;;;;3.33;2.67;;;;;18.18;57.11;101366.44;5048564;28;45388;-64
2021/08/20 00:07:45;;;;;;;;;2.67;2.67;;;;;18.17;57.20;101370.09;5030890;28;45706;-63
2021/08/20 00:10:11;;;;;;;;;3.00;2.00;;;;;18.13;57.15;101358.06;5048259;28;45524;-65
2021/08/20 00:12:36;;;;;;;;;3.33;3.33;;;;;18.12;57.46;101367.03;5053113;28;46095;-63
2021/08/20 00:15:03;;;;;;;;;3.00;3.00;;;;;18.09;57.40;101368.16;5054012;28;45510;-64
2021/08/20 00:17:28;;;;;;;;;4.67;3.33;;;;;18.07;57.44;101363.97;5039469;28;45525;-63
2021/08/20 00:19:54;;;;;;;;;2.00;2.00;;;;;18.06;57.38;101372.94;5049108;28;45436;-63
2021/08/20 00:22:19;;;;;;;;;2.33;2.00;;;;;18.04;57.69;101372.25;5051084;28;45727;-65
2021/08/20 00:24:45;;;;;;;;;2.00;2.00;;;;;18.03;57.49;101362.59;5051597;28;45470;-63
2021/08/20 00:27:11;;;;;;;;;2.33;2.33;;;;;18.00;57.87;101363.72;5042766;28;45338;-64
2021/08/20 00:29:37;;;;;;;;;2.00;2.00;;;;;17.99;57.83;101370.03;5046053;28;45380;-64
2021/08/20 00:32:03;;;;;;;;;3.00;2.67;;;;;17.97;58.00;101364.88;5052725;28;46441;-65
2021/08/20 00:34:28;;;;;;;;;2.00;0.33;;;;;17.95;58.16;101366.00;5053048;28;45420;-65
2021/08/20 00:36:54;;;;;;;;;3.00;3.00;;;;;17.93;58.12;101362.63;5052214;28;45844;-67
2021/08/20 00:39:19;;;;;;;;;2.67;2.67;;;;;17.91;58.52;101360.09;5054081;28;45708;-63
2021/08/20 00:41:46;;;;;;;;;3.00;2.00;;;;;17.89;58.22;101362.09;5054381;28;46054;-63
2021/08/20 00:44:12;;;;;;;;;4.33;3.00;;;;;17.87;58.08;101364.03;5044737;28;45368;-65
2021/08/20 00:46:38;;;;;;;;;5.33;5.00;;;;;17.84;58.56;101361.69;5050175;28;45657;-63
2021/08/20 00:49:04;;;;;;;;;3.00;3.00;;;;;17.83;58.83;101362.66;5045406;28;45398;-63
2021/08/20 00:51:34;;;;;;;;;4.00;4.00;;;;;17.81;59.10;101361.97;5040441;28;45885;-64
2021/08/20 00:54:01;;;;;;;;;3.00;2.67;;;;;17.82;59.23;101363.63;5054567;28;45437;-65
2021/08/20 00:56:26;;;;;;;;;2.67;2.67;;;;;17.81;59.38;101353.97;5042624;28;45403;-65
2021/08/20 00:58:52;;;;;;;;;5.00;3.33;;;;;17.80;59.50;101358.47;5050455;28;45389;-64
2021/08/20 01:01:17;;;;;;;;;4.00;4.00;;;;;17.78;59.43;101354.28;5041759;28;47204;-64
2021/08/20 01:03:43;;;;;;;;;3.00;3.00;;;;;17.75;59.55;101354.59;5048910;28;45413;-65
2021/08/20 01:06:08;;;;;;;;;5.00;4.00;;;;;17.77;59.46;101353.47;5063251;28;45486;-64
2021/08/20 01:08:36;;;;;;;;;4.00;4.00;;;;;17.78;59.36;101354.28;5052263;28;45563;-65
2021/08/20 01:11:04;;;;;;;;;4.00;4.00;;;;;17.82;59.40;101350.34;5045491;28;46011;-64
2021/08/20 01:13:36;;;;;;;;;6.00;4.33;;;;;17.84;59.21;101347.53;5036372;28;45539;-64
2021/08/20 01:16:02;;;;;;;;;6.00;5.00;;;;;17.85;59.15;101355.38;5045932;28;45580;-64
2021/08/20 01:18:36;;;;;;;;;4.33;3.00;;;;;17.91;59.11;101354.78;5034545;28;45606;-65
2021/08/20 01:21:06;;;;;;;;;5.67;5.00;;;;;17.98;59.14;101345.28;5054046;28;46332;-64
2021/08/20 01:23:31;;;;;;;;;4.67;4.00;;;;;18.08;59.41;101342.56;5037514;28;45597;-67
2021/08/20 01:25:57;;;;;;;;;4.00;4.00;;;;;18.12;58.65;101335.13;5049825;28;45507;-64
2021/08/20 01:28:24;;;;;;;;;4.00;3.67;;;;;18.14;58.50;101339.31;5028080;28;45952;-65
2021/08/20 01:30:51;;;;;;;;;3.33;3.00;;;;;18.16;58.54;101339.16;5038202;28;46224;-65
2021/08/20 01:33:17;;;;;;;;;3.00;3.00;;;;;18.17;58.61;101343.50;5052648;28;45483;-65
2021/08/20 01:35:43;;;;;;;;;3.00;3.00;;;;;18.17;58.40;101338.19;5045505;28;45471;-65
2021/08/20 01:38:08;;;;;;;;;4.67;3.33;;;;;18.15;58.44;101334.84;5050958;28;45510;-65
2021/08/20 01:40:33;;;;;;;;;4.00;1.33;;;;;18.13;58.31;101331.50;5048245;28;45376;-65
2021/08/20 01:42:59;;;;;;;;;3.00;3.00;;;;;18.17;58.22;101332.03;5024722;28;49929;-65
2021/08/20 01:45:24;;;;;;;;;4.33;3.00;;;;;18.19;58.14;101330.91;5035894;28;45431;-65
2021/08/20 01:47:49;;;;;;;;;4.00;2.67;;;;;18.19;58.14;101340.69;5049508;28;45495;-64
2021/08/20 01:50:15;;;;;;;;;3.00;3.00;;;;;18.16;58.36;101335.69;5041886;28;46405;-64
2021/08/20 01:52:40;;;;;;;;;5.00;4.00;;;;;18.14;58.18;101325.19;5036564;28;45324;-63
2021/08/20 01:55:08;;;;;;;;;5.33;4.00;;;;;18.13;58.42;101328.84;5043859;28;45470;-64
2021/08/20 01:57:35;;;;;;;;;7.00;3.33;;;;;18.14;58.57;101325.19;5036113;28;45718;-65
2021/08/20 02:00:01;;;;;;;;;4.00;3.00;;;;;18.17;58.51;101319.56;5049467;28;47189;-65
2021/08/20 02:02:27;;;;;;;;;3.00;2.00;;;;;18.18;58.23;101313.25;5041588;28;45517;-63
2021/08/20 02:04:52;;;;;;;;;4.00;3.00;;;;;18.19;58.45;101316.75;5041663;28;45628;-63
2021/08/20 02:07:17;;;;;;;;;4.00;2.67;;;;;18.20;58.20;101316.63;5037285;28;45491;-62
2021/08/20 02:09:47;;;;;;;;;4.00;2.00;;;;;18.20;58.38;101306.00;5037415;28;45523;-66
2021/08/20 02:12:12;;;;;;;;;2.00;2.00;;;;;18.22;58.35;101313.81;5036253;28;45556;-62
2021/08/20 02:14:38;;;;;;;;;2.33;1.67;;;;;18.22;58.20;101314.63;5038798;28;45263;-65
2021/08/20 02:17:03;;;;;;;;;3.33;2.33;;;;;18.21;58.05;101312.97;5045828;28;45367;-66
2021/08/20 02:19:29;;;;;;;;;5.00;3.33;;;;;18.22;58.18;101319.13;5041877;28;47188;-63
2021/08/20 02:21:54;;;;;;;;;3.33;2.67;;;;;18.18;58.22;101310.59;5043784;28;45408;-64
2021/08/20 02:24:19;;;;;;;;;4.33;3.00;;;;;18.16;58.25;101309.91;5040586;28;45586;-62
2021/08/20 02:26:45;;;;;;;;;2.00;2.00;;;;;18.14;58.33;101303.94;5057962;28;45275;-65
2021/08/20 02:29:10;;;;;;;;;1.00;1.00;;;;;18.16;58.49;101309.91;5019932;28;50049;-63
2021/08/20 02:31:35;;;;;;;;;4.67;3.00;;;;;18.17;58.34;101310.75;5051682;28;45309;-63
2021/08/20 02:34:01;;;;;;;;;5.00;4.00;;;;;18.17;58.46;101305.44;5044106;28;45330;-64
2021/08/20 02:36:26;;;;;;;;;2.33;2.33;;;;;18.16;58.31;101304.59;5040082;28;45614;-62
2021/08/20 02:38:51;;;;;;;;;2.33;2.33;;;;;18.19;58.52;101299.00;5055623;28;46005;-62
2021/08/20 02:41:17;;;;;;;;;3.67;3.33;;;;;18.19;58.28;101300.78;5045997;28;45550;-63
2021/08/20 02:43:43;;;;;;;;;3.00;3.00;;;;;18.19;58.31;101298.13;5045220;28;45755;-63
2021/08/20 02:46:09;;;;;;;;;4.67;3.33;;;;;18.17;58.45;101300.94;5044170;28;45403;-64
2021/08/20 02:48:34;;;;;;;;;1.67;1.67;;;;;18.18;58.42;101317.75;5040371;28;45971;-64
2021/08/20 02:51:00;;;;;;;;;5.33;4.67;;;;;18.13;58.17;101308.38;5042168;28;45623;-62
2021/08/20 02:53:25;;;;;;;;;3.67;3.67;;;;;18.09;58.59;101308.84;5045599;28;45424;-64
2021/08/20 02:55:51;;;;;;;;;5.67;2.33;;;;;18.06;58.57;101314.44;5044618;28;45529;-63
2021/08/20 02:58:16;;;;;;;;;3.67;3.33;;;;;18.02;58.89;101310.41;5028314;28;46173;-65
2021/08/20 03:00:41;;;;;;;;;3.00;3.00;;;;;17.93;58.83;101299.69;5049859;28;45408;-66
2021/08/20 03:03:07;;;;;;;;;3.00;3.00;;;;;18.01;58.90;101306.09;5039820;28;45381;-63
2021/08/20 03:05:32;;;;;;;;;3.67;3.67;;;;;17.98;58.81;101310.72;5050818;28;45421;-65
2021/08/20 03:07:58;;;;;;;;;4.00;3.67;;;;;17.97;58.89;101310.88;5049920;28;46920;-64
2021/08/20 03:10:23;;;;;;;;;4.00;4.00;;;;;17.95;59.05;101313.66;5049919;28;45462;-64
2021/08/20 03:12:49;;;;;;;;;7.00;4.00;;;;;17.96;59.02;101306.53;5037177;28;45506;-63
2021/08/20 03:15:14;;;;;;;;;4.33;3.67;;;;;17.93;59.17;101314.78;5049371;28;45461;-65
2021/08/20 03:17:40;;;;;;;;;5.67;4.00;;;;;17.91;59.36;101314.91;5037361;28;48769;-65
2021/08/20 03:20:07;;;;;;;;;3.33;3.00;;;;;17.93;59.37;101309.47;5049895;28;45555;-63
2021/08/20 03:22:32;;;;;;;;;4.33;3.33;;;;;17.91;59.41;101314.09;5054318;28;45778;-64
2021/08/20 03:24:57;;;;;;;;;4.00;3.00;;;;;17.90;59.51;101307.09;5057669;28;45433;-67
2021/08/20 03:27:23;;;;;;;;;4.00;4.00;;;;;17.91;59.42;101301.63;5057656;27;45943;-64
2021/08/20 03:29:49;;;;;;;;;4.00;4.00;;;;;17.90;59.47;101302.59;5056935;28;45428;-68
2021/08/20 03:32:14;;;;;;;;;3.00;3.00;;;;;17.92;59.54;101303.31;5058668;28;45442;-68
2021/08/20 03:34:39;;;;;;;;;2.67;2.00;;;;;17.95;59.67;101295.06;5057446;27;45592;-68
2021/08/20 03:37:05;;;;;;;;;5.33;4.00;;;;;17.98;59.56;101296.59;5058135;28;45498;-69
2021/08/20 03:39:30;;;;;;;;;4.67;4.00;;;;;18.03;59.50;101304.13;5058156;28;45336;-67
2021/08/20 03:41:56;;;;;;;;;5.00;5.00;;;;;18.06;59.34;101307.31;5056689;28;45407;-67
2021/08/20 03:44:21;;;;;;;;;3.33;3.33;;;;;18.08;59.31;101310.66;5057289;28;45506;-67
2021/08/20 03:46:46;;;;;;;;;3.00;3.00;;;;;18.11;59.49;101306.84;5056666;28;45371;-68
2021/08/20 03:49:12;;;;;;;;;6.00;4.33;;;;;18.12;59.11;101304.06;5057429;28;45498;-68
2021/08/20 03:51:37;;;;;;;;;6.00;4.00;;;;;18.17;59.34;101313.44;5057382;28;45261;-68
2021/08/20 03:54:03;;;;;;;;;4.00;4.00;;;;;18.21;59.12;101322.78;5056260;28;45331;-67
2021/08/20 03:56:28;;;;;;;;;3.00;3.00;;;;;18.22;59.14;101311.16;5056750;28;48550;-68
2021/08/20 03:58:53;;;;;;;;;6.67;4.00;;;;;18.25;59.44;101316.16;5057264;28;45234;-68
2021/08/20 04:01:19;;;;;;;;;2.67;2.67;;;;;18.27;59.39;101320.34;5056038;28;45788;-68
2021/08/20 04:03:45;;;;;;;;;7.00;5.00;;;;;18.28;59.08;101318.50;5057055;28;45283;-67
2021/08/20 04:06:11;;;;;;;;;3.67;3.67;;;;;18.27;59.14;101320.34;5045798;28;46685;-67
2021/08/20 04:08:37;;;;;;;;;4.67;3.00;;;;;18.26;59.15;101316.00;5056663;28;45497;-67
2021/08/20 04:11:03;;;;;;;;;4.33;3.33;;;;;18.28;59.15;101322.03;5056907;27;45235;-68
2021/08/20 04:13:28;;;;;;;;;1.67;1.67;;;;;18.28;59.44;101324.69;5058459;28;45480;-68
2021/08/20 04:15:53;;;;;;;;;3.00;3.00;;;;;18.27;59.24;101327.50;5050522;28;46918;-68
2021/08/20 04:18:19;;;;;;;;;4.00;4.00;;;;;18.27;59.38;101324.84;5060366;28;45357;-67
2021/08/20 04:20:44;;;;;;;;;2.00;2.00;;;;;18.25;59.49;101327.66;5060015;28;45460;-68
2021/08/20 04:23:10;;;;;;;;;5.33;4.00;;;;;18.25;59.25;101335.63;5042350;28;45506;-67
2021/08/20 04:25:35;;;;;;;;;4.00;3.00;;;;;18.25;59.44;101329.44;5056371;28;46313;-69
2021/08/20 04:28:01;;;;;;;;;7.33;5.00;;;;;18.29;59.57;101333.47;5055693;28;45388;-67
2021/08/20 04:30:30;;;;;;;;;4.33;4.00;;;;;18.30;59.44;101329.84;5056473;28;45402;-67
2021/08/20 04:32:57;;;;;;;;;6.67;4.33;;;;;18.30;59.51;101333.31;5055419;28;45309;-67
2021/08/20 04:35:24;;;;;;;;;3.00;3.00;;;;;18.28;59.49;101335.31;5058170;28;47087;-67
2021/08/20 04:37:49;;;;;;;;;3.00;3.00;;;;;18.23;59.52;101337.59;5056634;28;45442;-67
2021/08/20 04:40:15;;;;;;;;;6.00;4.00;;;;;18.24;59.80;101338.41;5040653;28;45613;-67
2021/08/20 04:42:40;;;;;;;;;6.00;4.33;;;;;18.24;59.64;101333.94;5065134;28;45493;-66
2021/08/20 04:45:06;;;;;;;;;4.67;4.67;;;;;18.26;59.72;101336.44;5034681;28;47372;-68
2021/08/20 04:47:32;;;;;;;;;6.00;4.33;;;;;18.25;59.68;101346.25;5055977;28;45484;-67
2021/08/20 04:49:58;;;;;;;;;3.00;3.00;;;;;18.25;59.76;101346.25;5056081;28;45359;-67
2021/08/20 04:52:23;;;;;;;;;5.00;3.67;;;;;18.24;59.70;101341.06;5056604;28;45285;-67
2021/08/20 04:54:49;;;;;;;;;5.00;3.67;;;;;18.26;59.70;101339.94;5055754;28;46285;-67
2021/08/20 04:57:14;;;;;;;;;5.00;5.00;;;;;18.29;59.67;101344.97;5055257;28;45544;-68
2021/08/20 04:59:39;;;;;;;;;6.00;6.00;;;;;18.32;59.63;101341.19;5056603;28;45447;-67
2021/08/20 05:02:06;;;;;;;;;8.33;4.33;;;;;18.33;59.58;101342.81;5055895;28;45597;-67
2021/08/20 05:04:34;;;;;;;;;6.00;4.00;;;;;18.34;59.76;101346.34;5055972;28;45415;-68
2021/08/20 05:07:00;;;;;;;;;3.33;3.33;;;;;18.33;59.77;101342.00;5055737;28;45435;-68
2021/08/20 05:09:26;;;;;;;;;7.67;4.67;;;;;18.36;59.76;101353.19;5054833;28;45475;-68
2021/08/20 05:11:51;;;;;;;;;4.67;4.00;;;;;18.34;59.81;101349.81;5054739;28;45442;-68
2021/08/20 05:14:16;;;;;;;;;6.67;4.00;;;;;18.37;59.91;101352.22;5055728;28;46913;-67
2021/08/20 05:16:42;;;;;;;;;5.67;4.33;;;;;18.40;59.58;101348.41;5055210;28;45536;-67
2021/08/20 05:19:07;;;;;;;;;4.00;2.00;;;;;18.42;59.88;101357.06;5056311;28;45350;-68
2021/08/20 05:21:32;;;;;;;;;3.00;3.00;;;;;18.42;59.75;101351.75;5056141;28;45322;-68
2021/08/20 05:23:58;;;;;;;;;3.67;3.67;;;;;18.41;59.50;101350.91;5054214;28;56011;-67
2021/08/20 05:26:25;;;;;;;;;4.67;4.67;;;;;18.39;59.78;101357.38;5055060;28;45456;-67
2021/08/20 05:28:51;;;;;;;;;4.00;4.00;;;;;18.40;59.79;101359.88;5056101;28;45479;-66
2021/08/20 05:31:16;;;;;;;;;5.00;3.00;;;;;18.42;59.76;101357.91;5037427;28;45538;-66
2021/08/20 05:33:41;;;;;;;;;4.33;3.00;;;;;18.44;59.63;101366.56;5055175;28;45580;-67
2021/08/20 05:36:07;;;;;;;;;4.33;4.00;;;;;18.45;59.60;101362.91;5054237;28;45371;-68
2021/08/20 05:38:33;;;;;;;;;3.00;3.00;;;;;18.47;59.78;101365.41;5055903;28;45272;-68
2021/08/20 05:40:58;;;;;;;;;2.33;2.33;;;;;18.47;59.67;101360.09;5055049;28;45375;-68
2021/08/20 05:43:23;;;;;;;;;4.00;3.67;;;;;18.49;59.62;101371.44;5055215;28;45490;-67
2021/08/20 05:45:49;;;;;;;;;5.00;5.00;;;;;18.47;59.63;101368.09;5055380;28;45354;-68
2021/08/20 05:48:14;;;;;;;;;5.00;4.00;;;;;18.46;59.52;101369.06;5055653;28;45452;-68
2021/08/20 05:50:39;;;;;;;;;5.33;4.33;;;;;18.45;59.96;101372.72;5054712;28;45313;-67
2021/08/20 05:53:05;;;;;;;;;5.67;5.00;;;;;18.43;59.76;101369.38;5055227;28;45561;-68
2021/08/20 05:55:31;;;;;;;;;4.33;4.33;;;;;18.43;59.98;101364.88;5057151;28;45493;-68
2021/08/20 05:57:58;;;;;;;;;5.33;4.00;;;;;18.43;59.78;101364.06;5059104;28;45440;-67
2021/08/20 06:00:23;;;;;;;;;6.00;5.00;;;;;18.42;59.92;101367.69;5059749;28;45523;-69
2021/08/20 06:02:49;;;;;;;;;4.00;3.00;;;;;18.44;59.85;101369.22;5061651;28;46019;-68
2021/08/20 06:05:14;;;;;;;;;6.00;5.00;;;;;18.47;59.95;101362.75;5066500;28;45537;-68
2021/08/20 06:07:40;;;;;;;;;4.00;4.00;;;;;18.49;59.87;101368.78;5065030;28;45394;-68
2021/08/20 06:10:07;;;;;;;;;4.67;3.00;;;;;18.54;59.85;101366.50;5064119;28;45532;-68
2021/08/20 06:12:32;;;;;;;;;7.00;5.67;;;;;18.57;59.64;101365.38;5048314;28;46239;-69
2021/08/20 06:14:58;;;;;;;;;4.67;3.67;;;;;18.61;59.75;101370.22;5061187;28;45791;-67
2021/08/20 06:17:23;;;;;;;;;7.00;3.00;;;;;18.66;59.50;101374.28;5061841;28;45482;-68
2021/08/20 06:19:49;;;;;;;;;4.67;4.00;;;;;18.67;59.51;101371.47;5038975;28;45627;-65
2021/08/20 06:22:14;;;;;;;;;3.00;3.00;;;;;18.70;59.70;101370.31;5049553;28;45711;-66
2021/08/20 06:24:40;;;;;;;;;5.00;4.00;;;;;18.73;59.51;101381.47;5058155;28;45441;-70
2021/08/20 06:27:05;;;;;;;;;4.67;4.00;;;;;18.74;59.73;101377.84;5057515;28;45531;-68
2021/08/20 06:29:30;;;;;;;;;5.67;4.00;;;;;18.75;59.46;101376.03;5058169;27;45502;-66
2021/08/20 06:31:56;;;;;;;;;6.33;4.33;;;;;18.78;59.51;101375.72;5058066;28;45481;-66
2021/08/20 06:34:21;;;;;;;;;4.00;4.00;;;;;18.81;59.36;101386.03;5058173;27;45487;-68
2021/08/20 06:36:46;;;;;;;;;4.00;4.00;;;;;18.83;59.29;101386.75;5058257;28;45487;-66
2021/08/20 06:39:12;;;;;;;;;5.67;4.67;;;;;18.84;59.31;101388.41;5058006;28;45337;-65
2021/08/20 06:41:38;;;;;;;;;6.00;4.67;;;;;18.87;59.31;101385.44;5058102;28;45419;-66
2021/08/20 06:44:04;;;;;;;;;7.00;6.33;;;;;18.88;58.93;101384.47;5059851;28;45579;-66
2021/08/20 06:46:29;;;;;;;;;7.00;5.33;;;;;18.91;58.89;101384.16;5058554;28;45295;-65
2021/08/20 06:48:55;;;;;;;;;6.00;3.67;;;;;18.94;59.02;101383.03;5057886;28;45734;-69
2021/08/20 06:51:20;;;;;;;;;5.67;4.00;;;;;18.98;58.99;101381.75;5057258;28;48831;-67
2021/08/20 06:53:45;;;;;;;;;3.00;3.00;;;;;18.99;59.23;101385.25;5058586;28;45531;-67
2021/08/20 06:56:11;;;;;;;;;5.67;5.33;;;;;19.01;59.16;101389.44;5057858;28;45368;-68
2021/08/20 06:58:36;;;;;;;;;5.00;4.00;;;;;19.03;58.82;101387.47;5056751;28;45297;-66
2021/08/20 07:01:02;;;;;;;;;5.00;5.00;;;;;19.03;58.81;101375.97;5057760;28;47035;-68
2021/08/20 07:03:27;;;;;;;;;7.00;4.67;;;;;19.08;59.14;101389.66;5039813;28;45447;-68
2021/08/20 07:05:52;;;;;;;;;5.00;4.67;;;;;19.09;59.21;101391.31;5056696;28;45524;-68
2021/08/20 07:08:18;;;;;;;;;6.00;6.00;;;;;19.10;59.18;101387.69;5057630;28;45630;-70
2021/08/20 07:10:43;;;;;;;;;6.33;5.67;;;;;19.09;58.95;101391.31;5058715;28;46095;-69
2021/08/20 07:13:09;;;;;;;;;6.33;4.33;;;;;19.09;59.04;101381.50;5058310;28;45419;-70
2021/08/20 07:15:34;;;;;;;;;5.67;5.67;;;;;19.14;58.82;101389.03;5058137;27;45439;-69
2021/08/20 07:18:00;;;;;;;;;6.67;5.00;;;;;19.11;58.99;101389.31;5057644;28;45404;-68
2021/08/20 07:20:25;;;;;;;;;6.67;6.33;;;;;19.05;58.77;101400.63;5057671;28;45367;-69
2021/08/20 07:22:51;;;;;;;;;6.33;5.67;;;;;18.95;59.29;101393.56;5057185;28;45546;-70
2021/08/20 07:25:16;;;;;;;;;4.00;1.33;;;;;18.93;58.94;101403.50;5063885;28;45427;-68
2021/08/20 07:27:42;;;;;;;;;4.00;2.00;;;;;18.92;59.34;101401.00;5057219;28;45421;-69
2021/08/20 07:30:08;;;;;;;;;5.33;3.67;;;;;18.89;59.11;101396.81;5041974;28;46665;-69
2021/08/20 07:32:33;;;;;;;;;3.00;2.67;;;;;18.87;59.31;101398.75;5056456;28;45254;-69
2021/08/20 07:34:59;;;;;;;;;6.00;6.00;;;;;18.82;59.70;101406.34;5054157;28;45471;-68
2021/08/20 07:37:24;;;;;;;;;5.33;3.67;;;;;18.79;59.49;101406.66;5056639;28;45775;-68
2021/08/20 07:39:49;;;;;;;;;7.00;3.00;;;;;18.77;59.72;101413.94;5056613;28;52400;-68
2021/08/20 07:42:18;;;;;;;;;6.67;4.00;;;;;18.75;59.62;101410.63;5056731;28;45326;-68
2021/08/20 07:44:43;;;;;;;;;4.00;4.00;;;;;18.74;60.05;101409.75;5054627;28;45586;-69
2021/08/20 07:47:09;;;;;;;;;7.00;5.00;;;;;18.76;60.03;101404.28;5057071;28;45494;-67
2021/08/20 07:49:34;;;;;;;;;5.67;4.33;;;;;18.77;59.72;101412.16;5057109;28;46031;-68
2021/08/20 07:51:59;;;;;;;;;6.33;4.00;;;;;18.78;60.21;101420.94;5056523;28;45929;-68
2021/08/20 07:54:25;;;;;;;;;7.00;5.00;;;;;18.81;59.76;101410.00;5057310;28;45531;-68
2021/08/20 07:56:50;;;;;;;;;6.00;5.00;;;;;18.82;59.97;101411.66;5067663;28;45382;-69
2021/08/20 07:59:16;;;;;;;;;6.33;6.00;;;;;18.84;59.84;101415.03;5040828;28;46127;-68
2021/08/20 08:01:41;;;;;;;;;8.00;5.00;;;;;18.85;59.73;101416.72;5056958;28;45423;-68
2021/08/20 08:04:06;;;;;;;;;8.67;6.33;;;;;18.88;59.73;101415.56;5056658;27;45766;-68
2021/08/20 08:06:32;;;;;;;;;7.33;5.00;;;;;18.89;60.09;101420.78;5038581;28;45441;-68
2021/08/20 08:08:57;;;;;;;;;4.00;4.00;;;;;18.90;59.96;101418.94;5055939;28;47398;-69
2021/08/20 08:11:23;;;;;;;;;8.00;6.33;;;;;18.93;59.83;101419.47;5056604;28;45451;-68
2021/08/20 08:13:48;;;;;;;;;7.33;7.00;;;;;18.93;60.22;101422.13;5056866;28;45586;-68
2021/08/20 08:16:14;;;;;;;;;5.00;5.00;;;;;18.98;60.09;101426.16;5056004;28;45485;-69
2021/08/20 08:18:39;;;;;;;;;11.00;8.00;;;;;18.99;60.09;101427.84;5055619;28;45475;-69
2021/08/20 08:21:05;;;;;;;;;12.00;9.00;;;;;19.01;60.44;101425.88;5055366;28;45381;-67
2021/08/20 08:23:31;;;;;;;;;9.00;7.33;;;;;19.04;59.97;101434.38;5056848;28;45635;-69
2021/08/20 08:25:56;;;;;;;;;9.00;7.33;;;;;19.08;60.37;101429.59;5038722;28;45400;-68
2021/08/20 08:28:22;;;;;;;;;8.67;7.00;;;;;19.12;59.98;101434.47;5057856;28;46426;-68
2021/08/20 08:30:49;;;;;;;;;5.00;5.00;;;;;19.15;60.27;101443.13;5058971;27;45381;-68
2021/08/20 08:33:15;;;;;;;;;10.67;8.33;;;;;19.19;59.93;101436.50;5057969;28;45327;-69
2021/08/20 08:35:41;;;;;;;;;17.33;12.00;;;;;19.21;60.37;101440.66;5059736;28;45440;-68
2021/08/20 08:38:12;;;;;;;;;8.67;8.00;;;;;19.29;59.93;101439.91;5061293;28;46432;-68
2021/08/20 08:40:43;;;;;;;;;7.00;6.00;;;;;19.36;59.72;101445.47;5062163;28;45344;-69
2021/08/20 08:43:09;;;;;;;;;5.33;5.33;;;;;19.40;59.96;101442.34;5056736;28;45398;-68
2021/08/20 08:45:35;;;;;;;;;10.67;7.00;;;;;19.44;59.66;101442.88;5056626;28;45492;-68
2021/08/20 08:48:03;;;;;;;;;3.67;3.67;;;;;19.48;59.65;101449.56;5055232;28;45587;-67
2021/08/20 08:50:29;;;;;;;;;7.67;5.00;;;;;19.52;59.70;101453.56;5056142;28;45692;-68
2021/08/20 08:52:54;;;;;;;;;9.33;6.33;;;;;19.58;59.19;101455.63;5056140;28;45543;-67
2021/08/20 08:55:20;;;;;;;;;9.00;6.67;;;;;19.63;59.44;101449.84;5055993;28;45439;-68
2021/08/20 08:57:45;;;;;;;;;8.00;8.00;;;;;19.67;59.50;101447.69;5056228;28;46155;-69
2021/08/20 09:00:12;;;;;;;;;14.00;9.00;;;;;19.73;59.38;101441.72;5055586;28;45363;-68
2021/08/20 09:02:37;;;;;;;;;6.33;6.33;;;;;19.80;59.19;101442.78;5055200;28;45309;-67
2021/08/20 09:05:11;;;;;;;;;9.00;7.33;;;;;19.84;59.26;101446.84;5055510;28;45613;-68
2021/08/20 09:07:38;;;;;;;;;7.33;7.00;;;;;19.91;58.84;101445.19;5055731;28;46068;-67
2021/08/20 09:10:20;;;;;;;;;9.00;6.00;;;;;20.00;58.31;101446.09;5055646;28;45532;-68
2021/08/20 09:12:58;;;;;;;;;10.33;9.00;;;;;20.07;58.26;101452.47;5038108;28;45501;-68
2021/08/20 09:15:26;;;;;;;;;8.67;7.67;;;;;20.13;58.23;101447.50;5056595;27;45416;-68
2021/08/20 09:18:01;;;;;;;;;7.00;6.00;;;;;20.18;58.24;101451.34;5054516;28;45459;-68
2021/08/20 09:20:35;;;;;;;;;9.67;8.67;;;;;20.21;57.78;101445.72;5037300;28;46207;-68
2021/08/20 09:23:02;;;;;;;;;10.00;8.33;;;;;20.28;57.64;101445.91;5056962;28;45457;-68
2021/08/20 09:25:40;;;;;;;;;6.33;6.33;;;;;20.34;57.68;101444.41;5055604;28;45518;-67
2021/08/20 09:28:19;;;;;;;;;8.67;6.00;;;;;20.40;57.47;101433.91;5054322;28;46239;-68
2021/08/20 09:30:54;;;;;;;;;7.00;7.00;;;;;20.49;56.93;101436.63;5034985;28;45500;-69
2021/08/20 09:33:21;;;;;;;;;9.67;7.67;;;;;20.55;57.09;101436.81;5055586;27;45783;-68
2021/08/20 09:35:55;;;;;;;;;11.00;8.00;;;;;20.65;56.55;101430.50;5054874;28;45317;-68
2021/08/20 09:38:21;;;;;;;;;12.00;12.00;;;;;20.70;56.50;101431.69;5054941;28;46457;-68
2021/08/20 09:40:52;;;;;;;;;9.67;7.00;;;;;20.76;56.60;101424.88;5055179;27;45437;-68
2021/08/20 09:43:27;;;;;;;;;9.33;5.67;;;;;20.82;56.07;101429.53;5055679;28;45349;-68
2021/08/20 09:46:18;;;;;;;;;8.00;6.33;;;;;20.88;55.85;101433.41;5055634;28;45662;-68
2021/08/20 09:49:01;;;;;;;;;14.67;13.67;;;;;20.98;55.81;101431.44;5041029;28;45516;-69
2021/08/20 09:51:36;;;;;;;;;9.00;7.00;;;;;21.06;56.24;101435.94;5055975;28;45542;-69
2021/08/20 09:54:04;;;;;;;;;10.00;7.00;;;;;21.07;55.54;101424.25;5054952;28;45329;-69
2021/08/20 09:56:30;;;;;;;;;6.67;4.33;;;;;21.20;55.64;101435.28;5057712;28;45552;-69
2021/08/20 09:59:01;;;;;;;;;7.33;5.00;;;;;21.28;55.19;101437.09;5055824;28;45547;-68
2021/08/20 10:01:31;;;;;;;;;7.67;5.67;;;;;21.40;54.72;101437.59;5054461;28;45330;-69
2021/08/20 10:04:02;;;;;;;;;7.00;5.00;;;;;21.49;55.07;101439.25;5054582;28;45474;-68
2021/08/20 10:06:32;;;;;;;;;10.00;6.00;;;;;21.61;54.56;101442.44;5055171;28;45570;-69
2021/08/20 10:09:05;;;;;;;;;9.00;5.00;;;;;21.73;54.07;101442.91;5054184;28;45687;-68
2021/08/20 10:11:33;;;;;;;;;6.33;6.33;;;;;21.81;54.37;101442.94;5055432;28;45333;-68
2021/08/20 10:14:02;;;;;;;;;6.33;5.67;;;;;21.91;54.04;101437.38;5054441;28;46761;-68
2021/08/20 10:16:34;;;;;;;;;6.33;5.67;;;;;22.02;53.65;101446.88;5071737;27;45572;-68
2021/08/20 10:19:01;;;;;;;;;6.00;5.00;;;;;22.12;53.54;101439.50;5054408;28;45997;-67
2021/08/20 10:21:29;;;;;;;;;6.33;5.67;;;;;22.25;53.17;101444.28;5054889;28;45412;-67
2021/08/20 10:23:54;;;;;;;;;4.67;4.67;;;;;22.36;52.88;101441.25;5054137;28;45535;-67
2021/08/20 10:26:21;;;;;;;;;6.33;4.33;;;;;22.44;52.80;101432.34;5054962;28;45575;-67
2021/08/20 10:28:48;;;;;;;;;5.33;4.67;;;;;22.54;52.53;101438.31;5055008;28;46023;-68
2021/08/20 10:31:14;;;;;;;;;20.67;18.00;;;;;22.66;52.13;101443.28;5054185;28;45341;-68
2021/08/20 10:33:40;;;;;;;;;12.00;9.33;;;;;22.77;52.12;101442.03;5054991;28;45290;-67
2021/08/20 10:36:05;;;;;;;;;7.00;5.67;;;;;22.89;52.06;101436.06;5053750;28;45273;-66
2021/08/20 10:38:44;;;;;;;;;6.67;6.67;;;;;23.03;51.77;101431.81;5054577;28;45351;-67
2021/08/20 10:41:22;;;;;;;;;11.33;8.33;;;;;23.13;51.29;101436.94;5056733;28;45428;-67
2021/08/20 10:43:55;;;;;;;;;10.00;6.33;;;;;23.26;50.93;101440.84;5057999;28;45533;-68
2021/08/20 10:46:36;;;;;;;;;4.00;4.00;;;;;23.33;50.32;101436.47;5058613;28;45420;-68
2021/08/20 10:49:31;;;;;;;;;3.00;2.00;;;;;23.39;50.42;101441.06;5057426;28;47340;-67
2021/08/20 10:51:57;;;;;;;;;9.00;8.00;;;;;23.53;49.64;101431.41;5057441;27;45290;-68
2021/08/20 10:54:31;;;;;;;;;4.00;4.00;;;;;23.66;48.91;101430.75;5058620;28;45294;-68
2021/08/20 10:57:01;;;;;;;;;2.00;2.00;;;;;23.79;48.00;101430.94;5057648;28;45579;-68
2021/08/20 10:59:35;;;;;;;;;4.33;3.00;;;;;23.87;47.96;101424.66;5057618;28;45533;-67
2021/08/20 11:02:19;;;;;;;;;4.00;4.00;;;;;23.88;48.52;101429.88;5057231;28;45425;-68
2021/08/20 11:05:08;;;;;;;;;3.33;2.00;;;;;23.89;48.21;101426.13;5057582;28;45473;-68
2021/08/20 11:07:36;;;;;;;;;4.00;2.33;;;;;23.93;47.74;101421.28;5057938;28;45399;-68
2021/08/20 11:10:24;;;;;;;;;2.67;2.67;;;;;23.96;47.16;101430.81;5039283;28;47243;-68
2021/08/20 11:12:53;;;;;;;;;3.00;3.00;;;;;23.96;47.85;101428.13;5031356;28;45468;-68
2021/08/20 11:15:19;;;;;;;;;6.00;3.00;;;;;23.98;46.49;101426.91;5057582;27;45399;-68
2021/08/20 11:17:50;;;;;;;;;3.00;1.00;;;;;23.98;46.53;101426.91;5055062;28;45459;-68
2021/08/20 11:20:21;;;;;;;;;2.00;2.00;;;;;23.91;46.64;101425.16;5057022;28;47238;-67
2021/08/20 11:23:12;;;;;;;;;4.00;3.00;;;;;23.80;46.92;101415.72;5057275;28;45424;-68